sensor_id;sensor_type;location;lat;lon;timestamp;P1;durP1;ratioP1;P2;durP2;ratioP2
29954;SDS011;68448;51.188;6.868;2023-12-04T00:01:12;26.67;;;11.90;;
29954;SDS011;68448;51.188;6.868;2023-12-04T00:03:39;20.93;;;11.77;;
29954;SDS011;68448;51.188;6.868;2023-12-04T00:06:06;24.53;;;9.13;;
29954;SDS011;68448;51.188;6.868;2023-12-04T00:08:35;19.47;;;11.37;;
29954;SDS011;68448;51.188;6.868;2023-12-04T00:11:02;23.43;;;12.30;;
29954;SDS011;68448;51.188;6.868;2023-12-04T00:13:29;27.57;;;12.23;;
29954;SDS011;68448;51.188;6.868;2023-12-04T00:15:56;21.47;;;11.40;;
29954;SDS011;68448;51.188;6.868;2023-12-04T00:18:24;20.50;;;11.03;;
29954;SDS011;68448;51.188;6.868;2023-12-04T00:20:51;15.80;;;9.50;;
29954;SDS011;68448;51.188;6.868;2023-12-04T00:23:18;24.47;;;11.37;;
29954;SDS011;68448;51.188;6.868;2023-12-04T00:25:46;19.67;;;10.87;;
29954;SDS011;68448;51.188;6.868;2023-12-04T00:28:14;22.13;;;11.50;;
29954;SDS011;68448;51.188;6.868;2023-12-04T00:30:41;18.83;;;9.73;;
29954;SDS011;68448;51.188;6.868;2023-12-04T00:33:08;23.83;;;11.60;;
29954;SDS011;68448;51.188;6.868;2023-12-04T00:35:35;21.17;;;10.93;;
29954;SDS011;68448;51.188;6.868;2023-12-04T00:38:02;20.60;;;10.07;;
29954;SDS011;68448;51.188;6.868;2023-12-04T00:40:30;17.43;;;10.80;;
29954;SDS011;68448;51.188;6.868;2023-12-04T00:42:58;21.93;;;11.43;;
29954;SDS011;68448;51.188;6.868;2023-12-04T00:45:25;20.90;;;11.30;;
29954;SDS011;68448;51.188;6.868;2023-12-04T00:47:52;22.60;;;10.73;;
29954;SDS011;68448;51.188;6.868;2023-12-04T00:50:20;17.43;;;10.87;;
29954;SDS011;68448;51.188;6.868;2023-12-04T00:52:47;19.87;;;11.17;;
29954;SDS011;68448;51.188;6.868;2023-12-04T00:55:14;20.17;;;11.77;;
29954;SDS011;68448;51.188;6.868;2023-12-04T00:57:41;21.13;;;9.60;;
29954;SDS011;68448;51.188;6.868;2023-12-04T01:00:10;17.20;;;10.73;;
29954;SDS011;68448;51.188;6.868;2023-12-04T01:02:38;17.63;;;9.50;;
29954;SDS011;68448;51.188;6.868;2023-12-04T01:05:05;21.13;;;9.97;;
29954;SDS011;68448;51.188;6.868;2023-12-04T01:07:32;25.80;;;12.40;;
29954;SDS011;68448;51.188;6.868;2023-12-04T01:09:59;16.00;;;9.57;;
29954;SDS011;68448;51.188;6.868;2023-12-04T01:12:27;19.70;;;10.90;;
29954;SDS011;68448;51.188;6.868;2023-12-04T01:14:54;20.13;;;11.40;;
29954;SDS011;68448;51.188;6.868;2023-12-04T01:17:22;18.40;;;9.00;;
29954;SDS011;68448;51.188;6.868;2023-12-04T01:19:50;17.30;;;10.30;;
29954;SDS011;68448;51.188;6.868;2023-12-04T01:22:17;17.80;;;10.40;;
29954;SDS011;68448;51.188;6.868;2023-12-04T01:24:44;20.37;;;10.57;;
29954;SDS011;68448;51.188;6.868;2023-12-04T01:27:11;19.10;;;10.77;;
29954;SDS011;68448;51.188;6.868;2023-12-04T01:29:39;15.33;;;8.77;;
29954;SDS011;68448;51.188;6.868;2023-12-04T01:32:06;19.40;;;9.60;;
29954;SDS011;68448;51.188;6.868;2023-12-04T01:34:34;19.40;;;9.83;;
29954;SDS011;68448;51.188;6.868;2023-12-04T01:37:01;21.60;;;9.80;;
29954;SDS011;68448;51.188;6.868;2023-12-04T01:39:28;19.27;;;9.87;;
29954;SDS011;68448;51.188;6.868;2023-12-04T01:41:55;21.70;;;9.30;;
29954;SDS011;68448;51.188;6.868;2023-12-04T01:44:23;17.27;;;10.17;;
29954;SDS011;68448;51.188;6.868;2023-12-04T01:46:51;18.50;;;10.83;;
29954;SDS011;68448;51.188;6.868;2023-12-04T01:49:18;14.93;;;8.20;;
29954;SDS011;68448;51.188;6.868;2023-12-04T01:51:47;17.30;;;9.57;;
29954;SDS011;68448;51.188;6.868;2023-12-04T01:54:14;18.20;;;10.23;;
29954;SDS011;68448;51.188;6.868;2023-12-04T01:56:42;16.67;;;9.50;;
29954;SDS011;68448;51.188;6.868;2023-12-04T01:59:09;19.73;;;9.87;;
29954;SDS011;68448;51.188;6.868;2023-12-04T02:01:36;19.70;;;9.30;;
29954;SDS011;68448;51.188;6.868;2023-12-04T02:04:04;20.50;;;10.13;;
29954;SDS011;68448;51.188;6.868;2023-12-04T02:06:31;15.57;;;8.93;;
29954;SDS011;68448;51.188;6.868;2023-12-04T02:09:00;16.10;;;9.20;;
29954;SDS011;68448;51.188;6.868;2023-12-04T02:11:28;14.90;;;8.40;;
29954;SDS011;68448;51.188;6.868;2023-12-04T02:13:55;16.43;;;9.10;;
29954;SDS011;68448;51.188;6.868;2023-12-04T02:16:23;13.90;;;8.60;;
29954;SDS011;68448;51.188;6.868;2023-12-04T02:18:51;18.43;;;9.97;;
29954;SDS011;68448;51.188;6.868;2023-12-04T02:21:18;18.90;;;10.00;;
29954;SDS011;68448;51.188;6.868;2023-12-04T02:23:48;20.30;;;9.57;;
29954;SDS011;68448;51.188;6.868;2023-12-04T02:26:16;13.53;;;8.90;;
29954;SDS011;68448;51.188;6.868;2023-12-04T02:28:44;17.23;;;9.40;;
29954;SDS011;68448;51.188;6.868;2023-12-04T02:31:13;12.83;;;8.60;;
29954;SDS011;68448;51.188;6.868;2023-12-04T02:33:40;15.50;;;9.43;;
29954;SDS011;68448;51.188;6.868;2023-12-04T02:36:08;16.40;;;8.50;;
29954;SDS011;68448;51.188;6.868;2023-12-04T02:38:36;15.30;;;8.93;;
29954;SDS011;68448;51.188;6.868;2023-12-04T02:41:05;10.87;;;7.87;;
29954;SDS011;68448;51.188;6.868;2023-12-04T02:43:32;15.37;;;9.00;;
29954;SDS011;68448;51.188;6.868;2023-12-04T02:45:59;21.60;;;9.10;;
29954;SDS011;68448;51.188;6.868;2023-12-04T02:48:27;15.23;;;8.70;;
29954;SDS011;68448;51.188;6.868;2023-12-04T02:50:54;16.70;;;9.10;;
29954;SDS011;68448;51.188;6.868;2023-12-04T02:53:21;19.27;;;8.90;;
29954;SDS011;68448;51.188;6.868;2023-12-04T02:55:48;17.60;;;8.87;;
29954;SDS011;68448;51.188;6.868;2023-12-04T02:58:16;13.93;;;8.57;;
29954;SDS011;68448;51.188;6.868;2023-12-04T03:00:44;21.30;;;10.23;;
29954;SDS011;68448;51.188;6.868;2023-12-04T03:03:11;13.80;;;8.53;;
29954;SDS011;68448;51.188;6.868;2023-12-04T03:05:38;16.50;;;8.30;;
29954;SDS011;68448;51.188;6.868;2023-12-04T03:08:05;14.20;;;7.90;;
29954;SDS011;68448;51.188;6.868;2023-12-04T03:10:33;13.50;;;7.73;;
29954;SDS011;68448;51.188;6.868;2023-12-04T03:13:00;16.30;;;8.97;;
29954;SDS011;68448;51.188;6.868;2023-12-04T03:15:28;15.67;;;8.33;;
29954;SDS011;68448;51.188;6.868;2023-12-04T03:17:57;14.40;;;8.43;;
29954;SDS011;68448;51.188;6.868;2023-12-04T03:20:25;14.37;;;7.87;;
29954;SDS011;68448;51.188;6.868;2023-12-04T03:22:52;17.40;;;9.10;;
29954;SDS011;68448;51.188;6.868;2023-12-04T03:25:19;14.00;;;7.70;;
29954;SDS011;68448;51.188;6.868;2023-12-04T03:27:47;16.03;;;8.10;;
29954;SDS011;68448;51.188;6.868;2023-12-04T03:30:14;12.90;;;7.37;;
29954;SDS011;68448;51.188;6.868;2023-12-04T03:32:42;12.83;;;8.20;;
29954;SDS011;68448;51.188;6.868;2023-12-04T03:35:09;11.93;;;7.03;;
29954;SDS011;68448;51.188;6.868;2023-12-04T03:37:37;16.60;;;8.03;;
29954;SDS011;68448;51.188;6.868;2023-12-04T03:40:04;15.47;;;7.07;;
29954;SDS011;68448;51.188;6.868;2023-12-04T03:42:31;14.47;;;8.07;;
29954;SDS011;68448;51.188;6.868;2023-12-04T03:44:59;14.13;;;7.97;;
29954;SDS011;68448;51.188;6.868;2023-12-04T03:47:26;16.20;;;8.37;;
29954;SDS011;68448;51.188;6.868;2023-12-04T03:49:54;13.03;;;7.27;;
29954;SDS011;68448;51.188;6.868;2023-12-04T03:52:21;14.80;;;7.93;;
29954;SDS011;68448;51.188;6.868;2023-12-04T03:54:48;14.03;;;8.00;;
29954;SDS011;68448;51.188;6.868;2023-12-04T03:57:16;13.50;;;7.87;;
29954;SDS011;68448;51.188;6.868;2023-12-04T03:59:43;13.43;;;7.37;;
29954;SDS011;68448;51.188;6.868;2023-12-04T04:02:10;13.67;;;7.30;;
29954;SDS011;68448;51.188;6.868;2023-12-04T04:04:37;13.00;;;7.57;;
29954;SDS011;68448;51.188;6.868;2023-12-04T04:07:06;14.63;;;7.80;;
29954;SDS011;68448;51.188;6.868;2023-12-04T04:09:33;13.23;;;7.10;;
29954;SDS011;68448;51.188;6.868;2023-12-04T04:12:00;15.03;;;8.30;;
29954;SDS011;68448;51.188;6.868;2023-12-04T04:14:27;14.00;;;8.03;;
29954;SDS011;68448;51.188;6.868;2023-12-04T04:16:54;13.67;;;8.30;;
29954;SDS011;68448;51.188;6.868;2023-12-04T04:19:22;13.13;;;7.70;;
29954;SDS011;68448;51.188;6.868;2023-12-04T04:21:49;13.23;;;7.13;;
29954;SDS011;68448;51.188;6.868;2023-12-04T04:24:17;17.60;;;7.90;;
29954;SDS011;68448;51.188;6.868;2023-12-04T04:26:44;11.13;;;6.70;;
29954;SDS011;68448;51.188;6.868;2023-12-04T04:29:11;13.20;;;6.97;;
29954;SDS011;68448;51.188;6.868;2023-12-04T04:31:38;13.77;;;7.33;;
29954;SDS011;68448;51.188;6.868;2023-12-04T04:34:06;14.23;;;7.83;;
29954;SDS011;68448;51.188;6.868;2023-12-04T04:36:33;17.23;;;8.73;;
29954;SDS011;68448;51.188;6.868;2023-12-04T04:39:00;16.17;;;7.40;;
29954;SDS011;68448;51.188;6.868;2023-12-04T04:41:28;12.90;;;7.60;;
29954;SDS011;68448;51.188;6.868;2023-12-04T04:43:55;13.80;;;7.83;;
29954;SDS011;68448;51.188;6.868;2023-12-04T04:46:23;14.13;;;7.37;;
29954;SDS011;68448;51.188;6.868;2023-12-04T04:48:50;13.17;;;7.77;;
29954;SDS011;68448;51.188;6.868;2023-12-04T04:51:17;15.03;;;8.20;;
29954;SDS011;68448;51.188;6.868;2023-12-04T04:53:44;13.93;;;7.43;;
29954;SDS011;68448;51.188;6.868;2023-12-04T04:56:11;15.07;;;7.77;;
29954;SDS011;68448;51.188;6.868;2023-12-04T04:58:40;10.33;;;7.37;;
29954;SDS011;68448;51.188;6.868;2023-12-04T05:01:07;12.00;;;7.50;;
29954;SDS011;68448;51.188;6.868;2023-12-04T05:03:35;15.00;;;7.70;;
29954;SDS011;68448;51.188;6.868;2023-12-04T05:06:02;14.93;;;7.70;;
29954;SDS011;68448;51.188;6.868;2023-12-04T05:08:29;15.63;;;9.20;;
29954;SDS011;68448;51.188;6.868;2023-12-04T05:10:57;13.33;;;8.90;;
29954;SDS011;68448;51.188;6.868;2023-12-04T05:13:24;16.10;;;9.60;;
29954;SDS011;68448;51.188;6.868;2023-12-04T05:15:52;16.57;;;8.90;;
29954;SDS011;68448;51.188;6.868;2023-12-04T05:18:19;17.27;;;9.07;;
29954;SDS011;68448;51.188;6.868;2023-12-04T05:20:46;16.87;;;7.73;;
29954;SDS011;68448;51.188;6.868;2023-12-04T05:23:14;14.20;;;8.60;;
29954;SDS011;68448;51.188;6.868;2023-12-04T05:25:41;14.93;;;8.50;;
29954;SDS011;68448;51.188;6.868;2023-12-04T05:28:15;17.90;;;8.43;;
29954;SDS011;68448;51.188;6.868;2023-12-04T05:30:43;15.63;;;9.07;;
29954;SDS011;68448;51.188;6.868;2023-12-04T05:33:11;18.10;;;9.20;;
29954;SDS011;68448;51.188;6.868;2023-12-04T05:35:39;14.50;;;8.83;;
29954;SDS011;68448;51.188;6.868;2023-12-04T05:38:06;15.17;;;8.53;;
29954;SDS011;68448;51.188;6.868;2023-12-04T05:40:33;20.03;;;8.63;;
29954;SDS011;68448;51.188;6.868;2023-12-04T05:43:00;13.60;;;9.00;;
29954;SDS011;68448;51.188;6.868;2023-12-04T05:45:27;15.83;;;9.30;;
29954;SDS011;68448;51.188;6.868;2023-12-04T05:47:54;17.30;;;8.70;;
29954;SDS011;68448;51.188;6.868;2023-12-04T05:50:23;14.37;;;9.20;;
29954;SDS011;68448;51.188;6.868;2023-12-04T05:52:50;12.63;;;7.60;;
29954;SDS011;68448;51.188;6.868;2023-12-04T05:55:17;15.63;;;9.20;;
29954;SDS011;68448;51.188;6.868;2023-12-04T05:57:44;20.30;;;10.50;;
29954;SDS011;68448;51.188;6.868;2023-12-04T06:00:12;18.23;;;9.50;;
29954;SDS011;68448;51.188;6.868;2023-12-04T06:02:40;16.63;;;10.23;;
29954;SDS011;68448;51.188;6.868;2023-12-04T06:05:07;18.23;;;9.30;;
29954;SDS011;68448;51.188;6.868;2023-12-04T06:07:36;15.83;;;8.90;;
29954;SDS011;68448;51.188;6.868;2023-12-04T06:10:04;16.10;;;9.77;;
29954;SDS011;68448;51.188;6.868;2023-12-04T06:12:31;15.53;;;9.70;;
29954;SDS011;68448;51.188;6.868;2023-12-04T06:14:58;17.03;;;9.33;;
29954;SDS011;68448;51.188;6.868;2023-12-04T06:17:25;17.20;;;10.80;;
29954;SDS011;68448;51.188;6.868;2023-12-04T06:19:53;21.90;;;9.50;;
29954;SDS011;68448;51.188;6.868;2023-12-04T06:22:20;14.93;;;8.97;;
29954;SDS011;68448;51.188;6.868;2023-12-04T06:24:49;19.63;;;10.77;;
29954;SDS011;68448;51.188;6.868;2023-12-04T06:27:17;25.17;;;14.07;;
29954;SDS011;68448;51.188;6.868;2023-12-04T06:29:44;23.23;;;11.50;;
29954;SDS011;68448;51.188;6.868;2023-12-04T06:32:14;20.67;;;10.30;;
29954;SDS011;68448;51.188;6.868;2023-12-04T06:34:42;16.80;;;9.97;;
29954;SDS011;68448;51.188;6.868;2023-12-04T06:37:09;16.60;;;10.67;;
29954;SDS011;68448;51.188;6.868;2023-12-04T06:39:37;16.73;;;9.73;;
29954;SDS011;68448;51.188;6.868;2023-12-04T06:42:07;16.30;;;9.73;;
29954;SDS011;68448;51.188;6.868;2023-12-04T06:44:34;16.80;;;10.53;;
29954;SDS011;68448;51.188;6.868;2023-12-04T06:47:02;24.23;;;10.80;;
29954;SDS011;68448;51.188;6.868;2023-12-04T06:49:30;17.00;;;8.37;;
29954;SDS011;68448;51.188;6.868;2023-12-04T06:51:58;15.70;;;9.50;;
29954;SDS011;68448;51.188;6.868;2023-12-04T06:54:25;28.10;;;9.90;;
29954;SDS011;68448;51.188;6.868;2023-12-04T06:56:53;18.47;;;9.63;;
29954;SDS011;68448;51.188;6.868;2023-12-04T06:59:21;15.17;;;9.20;;
29954;SDS011;68448;51.188;6.868;2023-12-04T07:01:48;20.90;;;10.77;;
29954;SDS011;68448;51.188;6.868;2023-12-04T07:04:16;18.13;;;10.47;;
29954;SDS011;68448;51.188;6.868;2023-12-04T07:06:43;18.00;;;10.07;;
29954;SDS011;68448;51.188;6.868;2023-12-04T07:09:10;19.50;;;9.50;;
29954;SDS011;68448;51.188;6.868;2023-12-04T07:11:37;18.40;;;9.53;;
29954;SDS011;68448;51.188;6.868;2023-12-04T07:14:04;14.10;;;9.20;;
29954;SDS011;68448;51.188;6.868;2023-12-04T07:16:39;15.77;;;7.87;;
29954;SDS011;68448;51.188;6.868;2023-12-04T07:19:06;16.27;;;8.87;;
29954;SDS011;68448;51.188;6.868;2023-12-04T07:21:33;15.20;;;9.17;;
29954;SDS011;68448;51.188;6.868;2023-12-04T07:24:01;13.10;;;7.50;;
29954;SDS011;68448;51.188;6.868;2023-12-04T07:26:28;14.20;;;8.70;;
29954;SDS011;68448;51.188;6.868;2023-12-04T07:28:55;16.80;;;9.27;;
29954;SDS011;68448;51.188;6.868;2023-12-04T07:31:22;17.03;;;9.83;;
29954;SDS011;68448;51.188;6.868;2023-12-04T07:33:50;17.80;;;9.73;;
29954;SDS011;68448;51.188;6.868;2023-12-04T07:36:17;14.80;;;9.27;;
29954;SDS011;68448;51.188;6.868;2023-12-04T07:38:45;13.37;;;9.03;;
29954;SDS011;68448;51.188;6.868;2023-12-04T07:41:12;14.03;;;8.40;;
29954;SDS011;68448;51.188;6.868;2023-12-04T07:43:39;12.10;;;7.20;;
29954;SDS011;68448;51.188;6.868;2023-12-04T07:46:06;15.00;;;7.23;;
29954;SDS011;68448;51.188;6.868;2023-12-04T07:48:33;14.77;;;8.87;;
29954;SDS011;68448;51.188;6.868;2023-12-04T07:51:02;12.80;;;7.93;;
29954;SDS011;68448;51.188;6.868;2023-12-04T07:53:29;11.43;;;8.20;;
29954;SDS011;68448;51.188;6.868;2023-12-04T07:55:56;14.50;;;8.30;;
29954;SDS011;68448;51.188;6.868;2023-12-04T07:58:23;12.63;;;6.70;;
29954;SDS011;68448;51.188;6.868;2023-12-04T08:00:50;14.93;;;8.33;;
29954;SDS011;68448;51.188;6.868;2023-12-04T08:03:17;13.33;;;7.57;;
29954;SDS011;68448;51.188;6.868;2023-12-04T08:05:45;11.47;;;7.07;;
29954;SDS011;68448;51.188;6.868;2023-12-04T08:08:13;13.90;;;7.73;;
29954;SDS011;68448;51.188;6.868;2023-12-04T08:10:40;15.73;;;8.67;;
29954;SDS011;68448;51.188;6.868;2023-12-04T08:13:07;12.93;;;7.60;;
29954;SDS011;68448;51.188;6.868;2023-12-04T08:15:35;12.33;;;7.10;;
29954;SDS011;68448;51.188;6.868;2023-12-04T08:18:02;16.43;;;8.90;;
29954;SDS011;68448;51.188;6.868;2023-12-04T08:20:29;13.33;;;6.57;;
29954;SDS011;68448;51.188;6.868;2023-12-04T08:23:05;11.37;;;6.67;;
29954;SDS011;68448;51.188;6.868;2023-12-04T08:25:34;14.00;;;6.83;;
29954;SDS011;68448;51.188;6.868;2023-12-04T08:28:01;11.17;;;6.87;;
29954;SDS011;68448;51.188;6.868;2023-12-04T08:30:28;12.40;;;7.13;;
29954;SDS011;68448;51.188;6.868;2023-12-04T08:32:55;13.70;;;8.40;;
29954;SDS011;68448;51.188;6.868;2023-12-04T08:35:23;11.53;;;7.60;;
29954;SDS011;68448;51.188;6.868;2023-12-04T08:37:50;11.80;;;6.60;;
29954;SDS011;68448;51.188;6.868;2023-12-04T08:40:17;14.03;;;7.10;;
29954;SDS011;68448;51.188;6.868;2023-12-04T08:42:45;11.87;;;7.20;;
29954;SDS011;68448;51.188;6.868;2023-12-04T08:45:13;14.60;;;6.43;;
29954;SDS011;68448;51.188;6.868;2023-12-04T08:47:42;12.40;;;7.00;;
29954;SDS011;68448;51.188;6.868;2023-12-04T08:50:09;10.50;;;5.60;;
29954;SDS011;68448;51.188;6.868;2023-12-04T08:52:36;11.20;;;7.07;;
29954;SDS011;68448;51.188;6.868;2023-12-04T08:55:04;9.57;;;6.80;;
29954;SDS011;68448;51.188;6.868;2023-12-04T08:57:31;10.40;;;6.03;;
29954;SDS011;68448;51.188;6.868;2023-12-04T08:59:59;12.20;;;6.83;;
29954;SDS011;68448;51.188;6.868;2023-12-04T09:02:26;10.87;;;5.57;;
29954;SDS011;68448;51.188;6.868;2023-12-04T09:04:54;11.70;;;6.63;;
29954;SDS011;68448;51.188;6.868;2023-12-04T09:07:21;10.37;;;6.17;;
29954;SDS011;68448;51.188;6.868;2023-12-04T09:09:51;10.77;;;6.77;;
29954;SDS011;68448;51.188;6.868;2023-12-04T09:12:18;8.70;;;6.30;;
29954;SDS011;68448;51.188;6.868;2023-12-04T09:14:45;11.63;;;6.07;;
29954;SDS011;68448;51.188;6.868;2023-12-04T09:17:14;12.97;;;7.10;;
29954;SDS011;68448;51.188;6.868;2023-12-04T09:19:41;10.77;;;6.10;;
29954;SDS011;68448;51.188;6.868;2023-12-04T09:22:09;9.37;;;6.33;;
29954;SDS011;68448;51.188;6.868;2023-12-04T09:24:44;11.40;;;6.30;;
29954;SDS011;68448;51.188;6.868;2023-12-04T09:27:12;10.10;;;6.00;;
29954;SDS011;68448;51.188;6.868;2023-12-04T09:29:40;8.60;;;5.73;;
29954;SDS011;68448;51.188;6.868;2023-12-04T09:32:07;15.93;;;7.73;;
29954;SDS011;68448;51.188;6.868;2023-12-04T09:34:35;7.87;;;5.93;;
29954;SDS011;68448;51.188;6.868;2023-12-04T09:37:02;7.67;;;5.67;;
29954;SDS011;68448;51.188;6.868;2023-12-04T09:39:36;7.50;;;5.10;;
29954;SDS011;68448;51.188;6.868;2023-12-04T09:42:04;7.80;;;5.90;;
29954;SDS011;68448;51.188;6.868;2023-12-04T09:44:31;10.33;;;5.87;;
29954;SDS011;68448;51.188;6.868;2023-12-04T09:46:59;9.97;;;6.70;;
29954;SDS011;68448;51.188;6.868;2023-12-04T09:49:26;9.53;;;5.93;;
29954;SDS011;68448;51.188;6.868;2023-12-04T09:51:58;14.83;;;7.20;;
29954;SDS011;68448;51.188;6.868;2023-12-04T09:54:27;7.97;;;5.43;;
29954;SDS011;68448;51.188;6.868;2023-12-04T09:56:55;10.20;;;6.07;;
29954;SDS011;68448;51.188;6.868;2023-12-04T09:59:22;11.93;;;8.03;;
29954;SDS011;68448;51.188;6.868;2023-12-04T10:01:51;8.50;;;6.20;;
29954;SDS011;68448;51.188;6.868;2023-12-04T10:04:19;6.73;;;5.20;;
29954;SDS011;68448;51.188;6.868;2023-12-04T10:06:47;9.50;;;6.17;;
29954;SDS011;68448;51.188;6.868;2023-12-04T10:09:19;9.07;;;5.57;;
29954;SDS011;68448;51.188;6.868;2023-12-04T10:11:46;9.80;;;5.77;;
29954;SDS011;68448;51.188;6.868;2023-12-04T10:14:14;9.50;;;6.27;;
29954;SDS011;68448;51.188;6.868;2023-12-04T10:16:42;13.23;;;7.53;;
29954;SDS011;68448;51.188;6.868;2023-12-04T10:19:16;11.57;;;6.57;;
29954;SDS011;68448;51.188;6.868;2023-12-04T10:21:44;13.40;;;6.70;;
29954;SDS011;68448;51.188;6.868;2023-12-04T10:24:11;11.47;;;6.03;;
29954;SDS011;68448;51.188;6.868;2023-12-04T10:29:10;8.40;;;5.27;;
29954;SDS011;68448;51.188;6.868;2023-12-04T10:31:37;9.70;;;6.50;;
29954;SDS011;68448;51.188;6.868;2023-12-04T10:34:04;9.87;;;5.50;;
29954;SDS011;68448;51.188;6.868;2023-12-04T10:36:32;10.73;;;6.67;;
29954;SDS011;68448;51.188;6.868;2023-12-04T10:38:59;9.83;;;5.97;;
29954;SDS011;68448;51.188;6.868;2023-12-04T10:41:26;11.53;;;6.10;;
29954;SDS011;68448;51.188;6.868;2023-12-04T10:43:53;8.40;;;5.50;;
29954;SDS011;68448;51.188;6.868;2023-12-04T10:46:34;11.77;;;6.03;;
29954;SDS011;68448;51.188;6.868;2023-12-04T10:49:02;10.23;;;5.87;;
29954;SDS011;68448;51.188;6.868;2023-12-04T10:51:32;8.80;;;5.80;;
29954;SDS011;68448;51.188;6.868;2023-12-04T10:54:00;10.00;;;6.47;;
29954;SDS011;68448;51.188;6.868;2023-12-04T10:56:30;14.03;;;7.37;;
29954;SDS011;68448;51.188;6.868;2023-12-04T10:58:57;10.00;;;6.27;;
29954;SDS011;68448;51.188;6.868;2023-12-04T11:01:26;8.77;;;6.13;;
29954;SDS011;68448;51.188;6.868;2023-12-04T11:03:55;9.90;;;6.50;;
29954;SDS011;68448;51.188;6.868;2023-12-04T11:06:23;11.53;;;6.40;;
29954;SDS011;68448;51.188;6.868;2023-12-04T11:08:51;17.60;;;7.47;;
29954;SDS011;68448;51.188;6.868;2023-12-04T11:11:21;11.73;;;7.10;;
29954;SDS011;68448;51.188;6.868;2023-12-04T11:13:50;12.53;;;7.67;;
29954;SDS011;68448;51.188;6.868;2023-12-04T11:16:25;11.50;;;7.20;;
29954;SDS011;68448;51.188;6.868;2023-12-04T11:18:56;10.30;;;6.70;;
29954;SDS011;68448;51.188;6.868;2023-12-04T11:21:28;14.90;;;8.00;;
29954;SDS011;68448;51.188;6.868;2023-12-04T11:23:55;11.83;;;7.07;;
29954;SDS011;68448;51.188;6.868;2023-12-04T11:26:22;16.33;;;7.60;;
29954;SDS011;68448;51.188;6.868;2023-12-04T11:28:49;13.80;;;7.70;;
29954;SDS011;68448;51.188;6.868;2023-12-04T11:31:17;11.73;;;6.80;;
29954;SDS011;68448;51.188;6.868;2023-12-04T11:33:44;12.60;;;7.33;;
29954;SDS011;68448;51.188;6.868;2023-12-04T11:36:13;9.30;;;6.63;;
29954;SDS011;68448;51.188;6.868;2023-12-04T11:38:43;12.37;;;6.43;;
29954;SDS011;68448;51.188;6.868;2023-12-04T11:41:16;7.90;;;5.67;;
29954;SDS011;68448;51.188;6.868;2023-12-04T11:43:50;15.80;;;8.83;;
29954;SDS011;68448;51.188;6.868;2023-12-04T11:46:18;13.57;;;8.20;;
29954;SDS011;68448;51.188;6.868;2023-12-04T11:48:46;21.23;;;7.40;;
29954;SDS011;68448;51.188;6.868;2023-12-04T11:51:16;13.77;;;7.80;;
29954;SDS011;68448;51.188;6.868;2023-12-04T11:54:03;12.97;;;8.20;;
29954;SDS011;68448;51.188;6.868;2023-12-04T11:56:30;16.07;;;8.77;;
29954;SDS011;68448;51.188;6.868;2023-12-04T11:59:02;14.83;;;8.43;;
29954;SDS011;68448;51.188;6.868;2023-12-04T12:01:32;9.70;;;6.80;;
29954;SDS011;68448;51.188;6.868;2023-12-04T12:04:00;11.83;;;7.90;;
29954;SDS011;68448;51.188;6.868;2023-12-04T12:06:28;15.90;;;8.60;;
29954;SDS011;68448;51.188;6.868;2023-12-04T12:08:56;15.37;;;8.30;;
29954;SDS011;68448;51.188;6.868;2023-12-04T12:11:23;15.10;;;8.00;;
29954;SDS011;68448;51.188;6.868;2023-12-04T12:13:50;15.23;;;8.93;;
29954;SDS011;68448;51.188;6.868;2023-12-04T12:16:17;12.07;;;7.90;;
29954;SDS011;68448;51.188;6.868;2023-12-04T12:18:46;11.40;;;7.37;;
29954;SDS011;68448;51.188;6.868;2023-12-04T12:21:13;13.83;;;8.30;;
29954;SDS011;68448;51.188;6.868;2023-12-04T12:23:42;13.30;;;8.97;;
29954;SDS011;68448;51.188;6.868;2023-12-04T12:26:10;17.83;;;9.33;;
29954;SDS011;68448;51.188;6.868;2023-12-04T12:28:37;14.60;;;8.63;;
29954;SDS011;68448;51.188;6.868;2023-12-04T12:31:04;20.07;;;9.20;;
29954;SDS011;68448;51.188;6.868;2023-12-04T12:33:31;15.07;;;8.50;;
29954;SDS011;68448;51.188;6.868;2023-12-04T12:35:59;14.43;;;9.77;;
29954;SDS011;68448;51.188;6.868;2023-12-04T12:38:30;16.47;;;9.50;;
29954;SDS011;68448;51.188;6.868;2023-12-04T12:40:59;15.10;;;7.93;;
29954;SDS011;68448;51.188;6.868;2023-12-04T12:43:27;12.20;;;7.87;;
29954;SDS011;68448;51.188;6.868;2023-12-04T12:45:54;17.87;;;9.33;;
29954;SDS011;68448;51.188;6.868;2023-12-04T12:48:22;15.43;;;9.20;;
29954;SDS011;68448;51.188;6.868;2023-12-04T12:50:49;16.80;;;9.50;;
29954;SDS011;68448;51.188;6.868;2023-12-04T12:53:17;15.63;;;9.23;;
29954;SDS011;68448;51.188;6.868;2023-12-04T12:55:44;13.50;;;8.53;;
29954;SDS011;68448;51.188;6.868;2023-12-04T12:58:12;17.23;;;8.70;;
29954;SDS011;68448;51.188;6.868;2023-12-04T13:00:41;16.33;;;8.70;;
29954;SDS011;68448;51.188;6.868;2023-12-04T13:03:13;12.47;;;8.40;;
29954;SDS011;68448;51.188;6.868;2023-12-04T13:05:40;13.83;;;9.10;;
29954;SDS011;68448;51.188;6.868;2023-12-04T13:08:08;15.10;;;8.37;;
29954;SDS011;68448;51.188;6.868;2023-12-04T13:10:35;13.23;;;7.90;;
29954;SDS011;68448;51.188;6.868;2023-12-04T13:13:02;18.80;;;8.93;;
29954;SDS011;68448;51.188;6.868;2023-12-04T13:15:31;13.53;;;7.53;;
29954;SDS011;68448;51.188;6.868;2023-12-04T13:17:58;11.00;;;6.97;;
29954;SDS011;68448;51.188;6.868;2023-12-04T13:20:25;15.13;;;9.10;;
29954;SDS011;68448;51.188;6.868;2023-12-04T13:22:52;9.73;;;7.17;;
29954;SDS011;68448;51.188;6.868;2023-12-04T13:25:19;16.50;;;9.20;;
29954;SDS011;68448;51.188;6.868;2023-12-04T13:27:46;12.50;;;7.60;;
29954;SDS011;68448;51.188;6.868;2023-12-04T13:30:13;15.10;;;7.90;;
29954;SDS011;68448;51.188;6.868;2023-12-04T13:32:42;14.80;;;7.33;;
29954;SDS011;68448;51.188;6.868;2023-12-04T13:35:09;13.33;;;7.33;;
29954;SDS011;68448;51.188;6.868;2023-12-04T13:37:37;14.50;;;7.87;;
29954;SDS011;68448;51.188;6.868;2023-12-04T13:40:04;14.40;;;6.57;;
29954;SDS011;68448;51.188;6.868;2023-12-04T13:42:32;11.93;;;7.60;;
29954;SDS011;68448;51.188;6.868;2023-12-04T13:44:59;12.80;;;6.67;;
29954;SDS011;68448;51.188;6.868;2023-12-04T13:47:26;13.47;;;8.83;;
29954;SDS011;68448;51.188;6.868;2023-12-04T13:49:55;11.97;;;6.70;;
29954;SDS011;68448;51.188;6.868;2023-12-04T13:52:22;14.10;;;7.57;;
29954;SDS011;68448;51.188;6.868;2023-12-04T13:54:49;8.63;;;5.63;;
29954;SDS011;68448;51.188;6.868;2023-12-04T13:57:16;11.50;;;7.40;;
29954;SDS011;68448;51.188;6.868;2023-12-04T13:59:43;13.27;;;7.80;;
29954;SDS011;68448;51.188;6.868;2023-12-04T14:02:10;13.27;;;7.10;;
29954;SDS011;68448;51.188;6.868;2023-12-04T14:04:38;11.10;;;6.53;;
29954;SDS011;68448;51.188;6.868;2023-12-04T14:07:07;11.57;;;6.10;;
29954;SDS011;68448;51.188;6.868;2023-12-04T14:09:35;10.47;;;5.87;;
29954;SDS011;68448;51.188;6.868;2023-12-04T14:12:02;8.60;;;5.90;;
29954;SDS011;68448;51.188;6.868;2023-12-04T14:14:30;10.43;;;6.30;;
29954;SDS011;68448;51.188;6.868;2023-12-04T14:16:57;7.60;;;5.00;;
29954;SDS011;68448;51.188;6.868;2023-12-04T14:19:25;9.80;;;6.03;;
29954;SDS011;68448;51.188;6.868;2023-12-04T14:21:52;9.87;;;5.93;;
29954;SDS011;68448;51.188;6.868;2023-12-04T14:24:20;8.03;;;5.47;;
29954;SDS011;68448;51.188;6.868;2023-12-04T14:26:48;8.57;;;5.73;;
29954;SDS011;68448;51.188;6.868;2023-12-04T14:29:15;6.53;;;4.50;;
29954;SDS011;68448;51.188;6.868;2023-12-04T14:31:42;10.40;;;6.40;;
29954;SDS011;68448;51.188;6.868;2023-12-04T14:34:09;9.13;;;5.80;;
29954;SDS011;68448;51.188;6.868;2023-12-04T14:36:36;7.87;;;5.87;;
29954;SDS011;68448;51.188;6.868;2023-12-04T14:39:04;10.40;;;5.40;;